Time;durP1;ratioP1;P1;durP2;ratioP2;P2;SDS_P1;SDS_P2;PMS_P1;PMS_P2;Temp;Humidity;BMP_temperature;BMP_pressure;BME280_temperature;BME280_humidity;BME280_pressure;Samples;Min_cycle;Max_cycle;Signal;HPM_P1;HPM_P2
2023/06/04 00:01:07;;;;;;;4.80;2.60;;;;;;;6.35;65.09;101265.66;104068;277;38598;-70
2023/06/04 00:04:04;;;;;;;4.50;2.60;;;;;;;6.33;65.07;101262.21;104023;277;38255;-69
2023/06/04 00:06:48;;;;;;;3.90;2.70;;;;;;;6.31;65.33;101259.45;104015;276;39681;-68
2023/06/04 00:09:30;;;;;;;6.00;3.10;;;;;;;6.29;65.45;101257.22;104043;317;39284;-68
2023/06/04 00:12:08;;;;;;;5.00;2.80;;;;;;;6.25;65.61;101258.29;104037;277;39464;-68
2023/06/04 00:14:48;;;;;;;4.80;2.90;;;;;;;6.19;65.65;101255.02;104099;277;38865;-69
2023/06/04 00:17:26;;;;;;;7.20;2.40;;;;;;;6.15;65.74;101257.82;104074;277;38406;-69
2023/06/04 00:20:02;;;;;;;3.90;2.50;;;;;;;6.11;66.06;101258.53;104044;277;40097;-70
2023/06/04 00:22:37;;;;;;;5.60;2.60;;;;;;;6.09;66.18;101255.42;104033;277;38267;-69
2023/06/04 00:25:17;;;;;;;4.30;2.70;;;;;;;6.08;66.23;101257.84;104009;277;38359;-71
2023/06/04 00:27:52;;;;;;;6.80;3.40;;;;;;;6.04;66.31;101254.77;104023;277;38529;-67
2023/06/04 00:30:29;;;;;;;2.80;2.50;;;;;;;6.02;66.42;101253.20;104000;276;39984;-68
2023/06/04 00:33:10;;;;;;;6.90;3.40;;;;;;;5.99;66.44;101251.14;104000;277;38237;-70
2023/06/04 00:35:44;;;;;;;4.20;2.70;;;;;;;5.94;66.51;101250.47;103965;277;38301;-70
2023/06/04 00:38:21;;;;;;;4.40;2.70;;;;;;;5.91;66.67;101250.11;103991;277;39598;-70
2023/06/04 00:40:56;;;;;;;6.40;2.60;;;;;;;5.89;66.75;101253.07;103999;277;39434;-69
2023/06/04 00:43:35;;;;;;;5.10;2.60;;;;;;;5.86;66.90;101252.38;104002;277;38938;-67
2023/06/04 00:46:17;;;;;;;6.40;2.90;;;;;;;5.84;66.90;101252.58;104026;276;39730;-70
2023/06/04 00:48:59;;;;;;;5.00;2.50;;;;;;;5.83;67.09;101252.92;103998;277;38734;-67
2023/06/04 00:51:34;;;;;;;4.70;3.00;;;;;;;5.82;67.23;101253.10;103795;277;37956;-69
2023/06/04 00:54:18;;;;;;;3.80;2.80;;;;;;;5.78;67.23;101252.25;103953;277;38256;-70
2023/06/04 00:56:54;;;;;;;5.30;2.90;;;;;;;5.74;67.35;101254.00;103937;277;40308;-70
2023/06/04 00:59:32;;;;;;;4.10;2.70;;;;;;;5.74;67.45;101254.86;104026;277;38315;-70
2023/06/04 01:02:15;;;;;;;6.10;3.60;;;;;;;5.75;67.62;101252.95;104054;277;38547;-71
2023/06/04 01:04:58;;;;;;;3.60;2.40;;;;;;;5.73;67.68;101251.75;104070;277;38594;-69
2023/06/04 01:07:36;;;;;;;6.40;3.30;;;;;;;5.70;67.83;101253.66;103964;265;38496;-70
2023/06/04 01:10:13;;;;;;;2.60;1.90;;;;;;;5.67;67.99;101254.19;103998;277;39423;-69
2023/06/04 01:12:49;;;;;;;3.20;2.30;;;;;;;5.65;68.05;101252.48;104012;277;39087;-70
2023/06/04 01:15:23;;;;;;;3.80;2.40;;;;;;;5.63;68.24;101250.22;103991;277;39362;-69
2023/06/04 01:18:03;;;;;;;5.20;2.40;;;;;;;5.63;68.38;101248.66;104009;277;39434;-70
2023/06/04 01:20:43;;;;;;;4.50;2.40;;;;;;;5.63;68.57;101249.36;104025;277;38254;-69
2023/06/04 01:23:42;;;;;;;4.70;3.00;;;;;;;5.61;68.60;101245.55;104028;276;38642;-70
2023/06/04 01:26:19;;;;;;;5.80;3.00;;;;;;;5.60;68.79;101250.07;104035;277;38797;-69
2023/06/04 01:28:53;;;;;;;4.40;2.50;;;;;;;5.61;68.91;101250.59;104038;277;38991;-71
2023/06/04 01:31:32;;;;;;;3.80;2.60;;;;;;;5.60;68.95;101247.98;103986;277;38412;-71
2023/06/04 01:34:13;;;;;;;4.40;2.60;;;;;;;5.61;69.11;101249.89;104040;277;38461;-69
2023/06/04 01:36:50;;;;;;;5.70;2.50;;;;;;;5.62;69.15;101251.10;104006;277;38762;-68
2023/06/04 01:39:26;;;;;;;5.90;2.60;;;;;;;5.62;69.12;101250.05;103385;277;907749;-70
2023/06/04 01:42:00;;;;;;;3.60;2.60;;;;;;;5.60;69.15;101249.72;104061;277;39448;-69
2023/06/04 01:44:34;;;;;;;6.40;3.00;;;;;;;5.61;69.28;101245.91;104084;265;38731;-69
2023/06/04 01:47:08;;;;;;;6.40;2.50;;;;;;;5.61;69.24;101243.84;104031;277;39496;-69
2023/06/04 01:49:43;;;;;;;4.90;2.70;;;;;;;5.62;69.43;101245.55;104080;277;38539;-70
2023/06/04 01:52:17;;;;;;;3.80;2.70;;;;;;;5.63;69.41;101245.39;104068;276;38497;-67
2023/06/04 01:54:55;;;;;;;4.90;2.60;;;;;;;5.65;69.66;101245.02;104060;277;38644;-70
2023/06/04 01:57:34;;;;;;;5.40;2.40;;;;;;;5.65;69.71;101241.73;104068;277;40506;-67
2023/06/04 02:00:15;;;;;;;6.70;2.40;;;;;;;5.64;69.81;101241.05;104020;277;39466;-72
2023/06/04 02:02:50;;;;;;;3.10;2.30;;;;;;;5.64;69.85;101240.53;104051;277;38453;-70
2023/06/04 02:05:25;;;;;;;5.00;2.60;;;;;;;5.64;69.98;101236.90;104011;277;38699;-71
2023/06/04 02:08:08;;;;;;;3.40;2.20;;;;;;;5.67;70.14;101238.27;104025;277;38481;-70
2023/06/04 02:10:48;;;;;;;5.90;2.50;;;;;;;5.69;70.23;101233.94;104018;277;38964;-68
2023/06/04 02:13:33;;;;;;;3.00;2.40;;;;;;;5.70;70.31;101234.27;103995;277;40149;-69
2023/06/04 02:16:16;;;;;;;3.80;2.70;;;;;;;5.71;70.32;101235.15;104015;277;38227;-70
2023/06/04 02:18:53;;;;;;;5.50;2.50;;;;;;;5.71;70.45;101239.81;103993;277;38935;-70
2023/06/04 02:21:32;;;;;;;5.50;2.40;;;;;;;5.72;70.48;101238.77;103997;277;38502;-66
2023/06/04 02:24:11;;;;;;;4.70;2.40;;;;;;;5.75;70.52;101235.29;103998;277;38405;-70
2023/06/04 02:26:47;;;;;;;5.70;2.30;;;;;;;5.79;70.49;101241.00;104018;277;38289;-70
2023/06/04 02:29:23;;;;;;;5.70;2.40;;;;;;;5.80;70.49;101239.77;104002;277;38808;-69
2023/06/04 02:32:01;;;;;;;;;;;;;;;5.82;70.38;101240.64;104023;277;39161;-68
2023/06/04 02:34:36;;;;;;;5.40;2.70;;;;;;;5.79;70.34;101240.13;104070;276;38528;-71
2023/06/04 02:37:10;;;;;;;5.10;2.60;;;;;;;5.81;70.08;101239.77;104103;277;39597;-70
2023/06/04 02:39:45;;;;;;;6.80;2.80;;;;;;;5.79;70.01;101237.87;103837;278;38731;-70
2023/06/04 02:42:19;;;;;;;7.90;2.80;;;;;;;5.79;69.84;101240.81;104054;277;38644;-70
2023/06/04 02:44:56;;;;;;;4.50;2.80;;;;;;;5.78;69.93;101241.85;104044;277;38239;-70
2023/06/04 02:47:30;;;;;;;6.00;3.00;;;;;;;5.79;70.01;101242.89;104074;277;38519;-69
2023/06/04 02:50:11;;;;;;;5.90;2.50;;;;;;;5.81;70.04;101243.74;104026;277;38377;-70
2023/06/04 02:52:49;;;;;;;3.90;2.60;;;;;;;5.81;70.05;101239.95;104008;277;39138;-69
2023/06/04 02:55:24;;;;;;;4.50;2.80;;;;;;;5.81;69.92;101240.98;103994;277;38508;-67
2023/06/04 02:58:02;;;;;;;3.80;2.40;;;;;;;5.82;69.94;101242.55;104003;277;38292;-69
2023/06/04 03:00:37;;;;;;;5.50;2.60;;;;;;;5.85;70.01;101241.65;103988;277;38293;-69
2023/06/04 03:03:17;;;;;;;4.30;2.60;;;;;;;5.88;70.11;101240.78;103993;277;39396;-70
2023/06/04 03:06:00;;;;;;;3.90;2.80;;;;;;;5.91;70.13;101239.39;104013;277;38270;-70
2023/06/04 03:08:36;;;;;;;4.50;2.90;;;;;;;5.93;70.25;101241.30;103981;276;38513;-70
2023/06/04 03:11:10;;;;;;;5.80;3.00;;;;;;;5.94;70.29;101238.69;103993;277;38324;-69
2023/06/04 03:13:46;;;;;;;5.70;3.20;;;;;;;5.97;70.26;101240.94;104017;277;38451;-70
2023/06/04 03:16:20;;;;;;;5.60;3.00;;;;;;;6.01;70.28;101240.75;104022;276;38540;-70
2023/06/04 03:18:59;;;;;;;6.80;2.90;;;;;;;6.07;70.32;101238.13;104082;277;38842;-69
2023/06/04 03:21:34;;;;;;;6.50;3.10;;;;;;;6.11;70.29;101239.30;103495;277;541539;-70
2023/06/04 03:24:08;;;;;;;7.30;3.30;;;;;;;6.14;70.30;101239.45;104028;277;38406;-70
2023/06/04 03:26:42;;;;;;;5.20;3.10;;;;;;;6.15;70.33;101241.52;104011;277;39457;-69
2023/06/04 03:29:22;;;;;;;5.40;3.00;;;;;;;6.18;70.49;101241.85;103311;273;906813;-70
2023/06/04 03:31:56;;;;;;;5.00;3.00;;;;;;;6.22;70.67;101240.98;103807;277;38644;-70
2023/06/04 03:34:32;;;;;;;10.20;3.30;;;;;;;6.28;70.82;101239.89;104040;277;38443;-68
2023/06/04 03:37:14;;;;;;;4.60;3.20;;;;;;;6.35;70.81;101237.07;104093;277;38416;-68
2023/06/04 03:39:58;;;;;;;8.00;3.60;;;;;;;6.43;70.96;101240.98;103968;276;39969;-68
2023/06/04 03:42:35;;;;;;;6.40;3.30;;;;;;;6.50;71.04;101242.69;104005;277;38869;-69
2023/06/04 03:45:13;;;;;;;7.30;3.70;;;;;;;6.57;71.12;101242.11;104011;276;39340;-68
2023/06/04 03:48:01;;;;;;;6.20;3.60;;;;;;;6.67;71.31;101240.48;104020;277;38454;-69
2023/06/04 03:50:39;;;;;;;5.80;3.50;;;;;;;6.86;71.48;101243.27;103971;277;38855;-68
2023/06/04 03:53:15;;;;;;;5.50;3.60;;;;;;;7.02;71.47;101246.41;103861;277;175419;-69
2023/06/04 03:55:51;;;;;;;8.50;3.80;;;;;;;7.15;71.39;101248.71;104016;277;38490;-70
2023/06/04 03:58:29;;;;;;;6.00;3.70;;;;;;;7.28;71.27;101248.41;103806;277;38485;-71
2023/06/04 04:01:04;;;;;;;8.30;3.70;;;;;;;7.37;71.00;101245.19;104018;276;38521;-71
2023/06/04 04:03:42;;;;;;;6.10;3.50;;;;;;;7.43;70.92;101248.41;104053;277;38262;-70
2023/06/04 04:06:19;;;;;;;5.30;3.70;;;;;;;7.52;71.03;101247.46;104065;265;38586;-68
2023/06/04 04:08:58;;;;;;;5.60;3.20;;;;;;;7.67;71.21;101247.80;104106;276;38636;-67
2023/06/04 04:11:35;;;;;;;6.70;3.60;;;;;;;8.04;71.71;101249.59;103847;277;41391;-68
2023/06/04 04:14:12;;;;;;;5.50;3.70;;;;;;;8.50;71.49;101241.83;104044;277;38312;-70
2023/06/04 04:17:01;;;;;;;5.20;3.30;;;;;;;9.10;71.44;101238.21;104065;276;39553;-70
2023/06/04 04:19:41;;;;;;;4.70;3.40;;;;;;;9.57;69.77;101236.09;104050;277;38307;-70
2023/06/04 04:22:19;;;;;;;4.90;3.30;;;;;;;9.76;68.66;101236.41;104038;277;39428;-70
2023/06/04 04:24:53;;;;;;;5.10;3.00;;;;;;;9.85;68.05;101233.09;104006;276;39175;-71
2023/06/04 04:27:31;;;;;;;3.60;2.50;;;;;;;9.84;67.42;101236.58;104059;277;38506;-70
2023/06/04 04:30:06;;;;;;;5.80;3.10;;;;;;;9.82;67.42;101238.18;104016;277;38351;-68
2023/06/04 04:32:50;;;;;;;3.00;2.00;;;;;;;9.79;67.35;101235.83;104023;277;39482;-67
2023/06/04 04:35:32;;;;;;;3.40;1.90;;;;;;;9.75;67.28;101234.69;103981;276;38435;-68
2023/06/04 04:38:17;;;;;;;3.50;1.90;;;;;;;9.72;67.64;101237.02;104003;277;40048;-69
2023/06/04 04:40:55;;;;;;;2.90;1.70;;;;;;;9.80;68.15;101236.30;104019;277;38320;-69
2023/06/04 04:43:39;;;;;;;2.80;1.70;;;;;;;10.15;68.55;101231.90;104005;277;39657;-69
2023/06/04 04:46:17;;;;;;;2.10;1.60;;;;;;;10.59;67.83;101228.64;104029;277;38475;-68
2023/06/04 04:48:58;;;;;;;3.60;1.60;;;;;;;10.89;66.73;101227.17;104037;277;38924;-67
2023/06/04 04:51:43;;;;;;;3.40;2.00;;;;;;;11.42;66.03;101224.21;104020;277;38775;-68
2023/06/04 04:54:27;;;;;;;3.70;1.80;;;;;;;11.84;64.82;101225.11;104082;277;39050;-68
2023/06/04 04:57:15;;;;;;;4.50;1.70;;;;;;;12.22;64.59;101226.23;104062;276;38492;-68
2023/06/04 04:59:58;;;;;;;2.20;1.30;;;;;;;13.07;65.59;101219.77;104089;277;38536;-69
2023/06/04 05:02:36;;;;;;;5.00;1.50;;;;;;;14.50;65.53;101217.38;104065;276;38651;-69
2023/06/04 05:05:17;;;;;;;3.40;1.50;;;;;;;16.06;61.52;101215.65;104048;277;39863;-69
2023/06/04 05:07:55;;;;;;;2.80;2.00;;;;;;;17.44;56.86;101208.04;104053;277;39402;-68
2023/06/04 05:10:35;;;;;;;2.70;2.20;;;;;;;18.69;52.83;101207.62;104015;277;38629;-70
2023/06/04 05:13:11;;;;;;;3.00;2.00;;;;;;;19.84;49.53;101207.16;104007;277;38957;-69
2023/06/04 05:15:45;;;;;;;3.00;1.60;;;;;;;20.96;45.71;101207.10;104014;277;38372;-71
2023/06/04 05:18:28;;;;;;;3.20;1.40;;;;;;;22.12;40.32;101203.00;104023;277;38238;-71
2023/06/04 05:21:02;;;;;;;2.00;1.60;;;;;;;22.89;38.38;101202.04;104046;277;39407;-70
2023/06/04 05:23:37;;;;;;;3.40;1.40;;;;;;;23.66;35.37;101205.84;104041;276;38232;-71
2023/06/04 05:26:22;;;;;;;2.20;1.40;;;;;;;24.51;33.20;101200.94;103995;277;39456;-68
2023/06/04 05:29:00;;;;;;;3.80;1.70;;;;;;;25.15;31.00;101198.74;104021;277;38220;-69
2023/06/04 05:31:36;;;;;;;2.00;1.30;;;;;;;25.63;30.05;101202.40;104038;277;38259;-69
2023/06/04 05:34:16;;;;;;;2.80;1.40;;;;;;;26.13;28.96;101202.95;103984;277;174388;-68
2023/06/04 05:36:54;;;;;;;4.10;1.60;;;;;;;26.92;28.38;101199.64;104066;277;38474;-69
2023/06/04 05:39:31;;;;;;;2.00;1.40;;;;;;;27.54;26.58;101203.77;104054;277;39429;-67
2023/06/04 05:42:14;;;;;;;1.80;1.40;;;;;;;28.00;25.50;101202.09;103400;265;900245;-69
2023/06/04 05:44:55;;;;;;;1.90;1.10;;;;;;;28.46;24.24;101202.05;104071;276;38374;-70
2023/06/04 05:47:34;;;;;;;1.40;1.00;;;;;;;28.69;23.43;101201.31;104082;277;38351;-69
2023/06/04 05:50:12;;;;;;;3.20;1.30;;;;;;;28.76;23.25;101202.05;104065;277;38422;-70
2023/06/04 05:52:58;;;;;;;3.70;1.20;;;;;;;29.07;22.98;101196.77;104048;277;38492;-68
2023/06/04 05:55:38;;;;;;;1.20;0.90;;;;;;;29.26;22.62;101195.27;103981;277;38321;-68
2023/06/04 05:58:23;;;;;;;1.30;1.00;;;;;;;29.39;22.30;101198.30;104018;277;38519;-69
2023/06/04 06:00:57;;;;;;;2.40;1.00;;;;;;;29.67;21.58;101196.59;104005;277;38509;-71
2023/06/04 06:03:32;;;;;;;2.70;1.20;;;;;;;30.13;20.86;101196.23;104051;277;38353;-69
2023/06/04 06:06:05;;;;;;;1.90;1.00;;;;;;;30.28;20.39;101197.03;104040;276;38746;-68
2023/06/04 06:08:40;;;;;;;1.70;0.80;;;;;;;30.52;20.01;101195.73;103989;277;39191;-69
2023/06/04 06:11:18;;;;;;;1.60;1.00;;;;;;;30.94;19.87;101199.40;104032;277;38553;-69
2023/06/04 06:13:51;;;;;;;;;;;;;;;31.27;19.19;101203.87;104076;277;39634;-68
2023/06/04 06:16:28;;;;;;;1.60;0.90;;;;;;;31.26;18.94;101207.53;104022;277;38499;-68
2023/06/04 06:19:04;;;;;;;2.80;0.80;;;;;;;31.47;18.88;101209.49;104071;277;39665;-76
2023/06/04 06:21:39;;;;;;;2.90;1.20;;;;;;;31.49;18.53;101211.84;104047;276;40088;-70
2023/06/04 06:24:17;;;;;;;3.70;1.00;;;;;;;31.64;17.85;101210.77;104057;277;39442;-69
2023/06/04 06:26:58;;;;;;;1.70;0.70;;;;;;;31.74;18.19;101209.81;104030;277;38240;-69
2023/06/04 06:29:39;;;;;;;2.60;0.90;;;;;;;31.89;17.90;101218.30;104022;275;38298;-69
2023/06/04 06:32:21;;;;;;;2.70;0.90;;;;;;;32.07;17.53;101217.39;104067;277;38281;-69
2023/06/04 06:35:00;;;;;;;1.90;0.80;;;;;;;32.36;17.17;101215.49;104004;277;38481;-70
2023/06/04 06:37:41;;;;;;;1.10;0.70;;;;;;;32.35;17.12;101216.98;104040;277;38270;-70
2023/06/04 06:40:20;;;;;;;1.90;0.90;;;;;;;32.48;16.81;101219.81;103993;265;38438;-69
2023/06/04 06:42:54;;;;;;;1.00;0.70;;;;;;;32.23;16.31;101219.87;103999;277;38383;-69
2023/06/04 06:45:31;;;;;;;1.60;0.90;;;;;;;32.17;16.96;101221.29;104052;276;38319;-69
2023/06/04 06:48:06;;;;;;;1.30;0.80;;;;;;;32.58;16.48;101224.99;104020;277;38240;-69
2023/06/04 06:50:40;;;;;;;1.80;0.80;;;;;;;32.77;16.25;101227.23;103989;277;38243;-72
2023/06/04 06:53:17;;;;;;;1.80;0.80;;;;;;;32.86;15.64;101224.35;104020;277;38309;-70
2023/06/04 06:55:51;;;;;;;1.20;0.80;;;;;;;32.98;16.03;101223.14;104045;277;39401;-70
2023/06/04 06:58:25;;;;;;;1.10;0.70;;;;;;;32.99;15.62;101220.63;104064;276;38294;-70
2023/06/04 07:01:00;;;;;;;1.60;0.80;;;;;;;33.06;15.09;101226.48;103994;277;40879;-69
2023/06/04 07:03:38;;;;;;;2.80;1.00;;;;;;;32.85;15.11;101229.67;104028;277;38276;-69
2023/06/04 07:06:12;;;;;;;3.00;0.80;;;;;;;32.85;15.68;101229.46;104048;277;40094;-69
2023/06/04 07:08:49;;;;;;;2.70;0.80;;;;;;;32.86;15.23;101231.37;104078;277;39782;-69
2023/06/04 07:11:23;;;;;;;3.20;0.80;;;;;;;32.73;14.60;101228.83;104064;277;38563;-70
2023/06/04 07:13:58;;;;;;;2.40;0.80;;;;;;;32.77;14.68;101232.25;104084;277;38413;-70
2023/06/04 07:16:38;;;;;;;4.20;0.70;;;;;;;32.92;14.76;101233.52;104067;277;38433;-70
2023/06/04 07:19:12;;;;;;;1.90;0.80;;;;;;;33.13;14.23;101231.44;104094;277;38726;-69
2023/06/04 07:21:46;;;;;;;2.70;0.50;;;;;;;33.37;14.29;101233.39;104066;276;38291;-69
2023/06/04 07:24:20;;;;;;;1.30;0.60;;;;;;;33.68;13.54;101225.66;104099;277;39359;-69
2023/06/04 07:26:57;;;;;;;2.20;0.40;;;;;;;33.42;14.13;101221.77;104066;277;39726;-69
2023/06/04 07:29:34;;;;;;;2.30;0.70;;;;;;;33.17;13.95;101223.86;104088;276;39386;-69
2023/06/04 07:32:12;;;;;;;1.50;0.70;;;;;;;33.19;14.14;101228.55;104028;277;38826;-69
2023/06/04 07:34:49;;;;;;;1.30;0.60;;;;;;;33.23;13.35;101228.21;104006;277;38344;-69
2023/06/04 07:37:23;;;;;;;1.30;0.60;;;;;;;33.12;13.38;101226.62;103893;277;173939;-69
2023/06/04 07:39:57;;;;;;;0.70;0.60;;;;;;;33.30;13.88;101224.13;104007;277;38518;-69
2023/06/04 07:42:31;;;;;;;1.50;0.70;;;;;;;33.71;13.55;101222.04;103989;277;38538;-69
2023/06/04 07:45:13;;;;;;;1.50;0.60;;;;;;;33.98;13.16;101229.70;104033;276;38439;-70
2023/06/04 07:47:50;;;;;;;1.50;0.90;;;;;;;34.00;13.30;101223.36;103979;277;38235;-70
2023/06/04 07:50:27;;;;;;;2.30;1.00;;;;;;;34.16;13.74;101223.13;104062;277;38800;-70
2023/06/04 07:53:06;;;;;;;1.50;0.70;;;;;;;34.32;13.40;101225.51;104042;277;39402;-70
2023/06/04 07:55:40;;;;;;;3.00;0.80;;;;;;;34.44;13.07;101219.86;104057;265;38257;-70
2023/06/04 07:58:16;;;;;;;2.40;0.90;;;;;;;34.35;13.08;101214.98;104102;277;38431;-69
2023/06/04 08:00:49;;;;;;;1.90;0.90;;;;;;;33.85;13.57;101217.77;104096;277;39485;-69
2023/06/04 08:03:24;;;;;;;2.60;0.90;;;;;;;33.73;13.87;101218.91;104107;277;38253;-69
2023/06/04 08:05:58;;;;;;;1.60;0.70;;;;;;;33.99;13.46;101218.92;104063;277;38727;-69
2023/06/04 08:08:33;;;;;;;1.90;0.80;;;;;;;34.30;13.53;101220.35;104130;277;38658;-69
2023/06/04 08:11:10;;;;;;;2.40;0.70;;;;;;;34.45;13.01;101219.34;103788;277;40721;-70
2023/06/04 08:13:47;;;;;;;2.90;0.70;;;;;;;34.02;13.26;101221.25;104074;277;38340;-70
2023/06/04 08:16:21;;;;;;;2.10;0.60;;;;;;;33.91;13.56;101224.03;103964;276;173866;-70
2023/06/04 08:18:55;;;;;;;1.30;0.60;;;;;;;33.98;13.25;101222.16;104068;276;38853;-70
2023/06/04 08:21:33;;;;;;;3.00;0.60;;;;;;;34.10;13.23;101224.81;104035;277;38662;-70
2023/06/04 08:24:08;;;;;;;1.70;0.70;;;;;;;34.16;13.00;101220.44;104007;277;38814;-69
2023/06/04 08:26:43;;;;;;;1.40;0.90;;;;;;;34.25;12.94;101217.27;104057;277;38299;-71
2023/06/04 08:29:18;;;;;;;1.10;0.80;;;;;;;34.30;13.02;101216.29;104022;277;40167;-70
2023/06/04 08:31:52;;;;;;;1.10;0.90;;;;;;;34.41;12.99;101210.17;103997;276;38374;-70
2023/06/04 08:34:29;;;;;;;1.40;0.80;;;;;;;34.58;13.06;101201.13;104026;277;38234;-70
2023/06/04 08:37:05;;;;;;;2.10;0.80;;;;;;;34.57;13.53;101197.35;103805;276;38833;-70
2023/06/04 08:39:40;;;;;;;;;;;;;;;34.58;13.35;101204.21;104077;277;39896;-70
2023/06/04 08:42:23;;;;;;;1.50;0.90;;;;;;;34.27;13.23;101200.41;104034;277;38448;-70
2023/06/04 08:44:57;;;;;;;1.30;0.70;;;;;;;34.26;13.23;101205.89;103880;277;38366;-69
2023/06/04 08:47:35;;;;;;;1.60;0.80;;;;;;;34.26;13.35;101194.73;104069;275;39443;-69
2023/06/04 08:50:12;;;;;;;1.60;0.80;;;;;;;34.07;13.47;101193.44;104026;277;38237;-69
2023/06/04 08:52:50;;;;;;;1.80;0.80;;;;;;;34.19;13.46;101192.55;104072;277;38798;-69
2023/06/04 08:55:25;;;;;;;3.20;0.80;;;;;;;34.15;13.75;101188.27;103946;277;38234;-70
2023/06/04 08:58:03;;;;;;;1.90;0.80;;;;;;;34.08;14.14;101186.64;104088;277;38282;-70
2023/06/04 09:00:42;;;;;;;1.50;0.70;;;;;;;34.35;13.04;101192.85;104077;277;38318;-69
2023/06/04 09:03:16;;;;;;;1.50;0.90;;;;;;;34.30;13.06;101198.23;104082;277;39691;-70
2023/06/04 09:05:54;;;;;;;1.70;1.20;;;;;;;34.06;12.69;101202.77;104042;276;39045;-70
2023/06/04 09:08:36;;;;;;;1.80;0.80;;;;;;;33.52;13.03;101198.86;104054;277;39649;-69
2023/06/04 09:11:11;;;;;;;3.40;1.00;;;;;;;32.99;13.66;101202.41;104032;277;38693;-69
2023/06/04 09:13:52;;;;;;;1.70;0.80;;;;;;;32.64;13.70;101206.38;104035;277;38239;-70
2023/06/04 09:16:36;;;;;;;2.40;0.70;;;;;;;32.24;14.51;101202.42;104041;277;39604;-70
2023/06/04 09:19:11;;;;;;;2.10;0.70;;;;;;;31.97;14.80;101199.98;104042;277;39241;-70
2023/06/04 09:21:55;;;;;;;1.20;0.80;;;;;;;31.80;15.06;101199.88;104054;277;38289;-69
2023/06/04 09:24:41;;;;;;;1.30;0.60;;;;;;;31.37;14.27;101194.34;104046;277;38475;-68
2023/06/04 09:27:22;;;;;;;0.80;0.60;;;;;;;30.77;15.10;101192.12;104105;277;38276;-68
2023/06/04 09:30:00;;;;;;;0.70;0.60;;;;;;;30.16;14.67;101197.98;104087;277;38338;-70
2023/06/04 09:32:34;;;;;;;3.20;0.60;;;;;;;29.74;15.84;101193.86;104048;277;38753;-69
2023/06/04 09:35:18;;;;;;;0.90;0.60;;;;;;;29.45;15.83;101188.90;104108;277;39844;-69
2023/06/04 09:38:02;;;;;;;1.70;0.60;;;;;;;28.97;15.66;101188.10;104077;277;39466;-69
2023/06/04 09:40:42;;;;;;;1.60;0.80;;;;;;;28.52;16.02;101188.88;104092;277;38824;-68
2023/06/04 09:43:23;;;;;;;1.10;0.60;;;;;;;28.21;17.10;101185.70;104047;277;38406;-69
2023/06/04 09:46:14;;;;;;;2.10;0.80;;;;;;;27.88;16.70;101185.02;104057;277;38593;-69
2023/06/04 09:48:50;;;;;;;3.10;0.70;;;;;;;27.38;17.28;101180.56;104081;277;39368;-70
2023/06/04 09:51:30;;;;;;;2.40;0.80;;;;;;;27.11;17.92;101173.47;104075;276;38406;-69
2023/06/04 09:54:07;;;;;;;1.40;0.80;;;;;;;27.08;19.09;101178.81;104092;277;38348;-68
2023/06/04 09:56:45;;;;;;;2.70;0.80;;;;;;;27.17;18.77;101180.05;104043;277;38341;-69
2023/06/04 09:59:19;;;;;;;;;;;;;;;27.30;18.36;101179.53;104070;277;38268;-69
2023/06/04 10:01:57;;;;;;;1.90;0.60;;;;;;;27.24;17.81;101178.27;103980;277;38233;-68
2023/06/04 10:04:31;;;;;;;0.90;0.70;;;;;;;27.15;17.97;101173.98;104035;277;38351;-71
2023/06/04 10:07:05;;;;;;;2.30;0.70;;;;;;;27.09;18.45;101170.11;104042;277;39411;-69
2023/06/04 10:09:45;;;;;;;2.70;0.70;;;;;;;27.08;18.21;101172.88;104020;277;38496;-70
2023/06/04 10:12:21;;;;;;;2.10;0.70;;;;;;;26.94;17.71;101167.05;103836;277;38525;-70
2023/06/04 10:14:57;;;;;;;0.70;0.60;;;;;;;26.75;17.62;101165.95;104036;277;38329;-76
2023/06/04 10:17:35;;;;;;;2.00;0.80;;;;;;;26.56;18.35;101162.30;104063;277;38469;-76
2023/06/04 10:20:12;;;;;;;1.00;0.60;;;;;;;26.52;18.67;101160.22;104046;277;38202;-75
2023/06/04 10:22:49;;;;;;;2.00;0.80;;;;;;;26.48;18.27;101163.46;104030;276;38259;-77
2023/06/04 10:25:24;;;;;;;1.50;0.70;;;;;;;26.27;17.94;101165.53;104054;276;38751;-75
2023/06/04 10:28:02;;;;;;;4.90;0.80;;;;;;;26.02;18.09;101162.43;104081;277;38355;-76
2023/06/04 10:30:37;;;;;;;1.40;0.90;;;;;;;25.83;19.02;101157.39;103915;277;40301;-75
2023/06/04 10:33:15;;;;;;;1.30;0.80;;;;;;;25.80;18.93;101161.24;104101;277;38786;-75
2023/06/04 10:35:54;;;;;;;2.40;0.70;;;;;;;25.83;19.18;101156.30;104028;277;38726;-77
2023/06/04 10:38:31;;;;;;;2.60;0.80;;;;;;;25.83;19.03;101152.93;103984;276;39337;-76
2023/06/04 10:41:16;;;;;;;2.50;0.80;;;;;;;25.72;18.92;101153.66;103851;277;40213;-76
2023/06/04 10:43:51;;;;;;;1.00;0.60;;;;;;;25.60;18.59;101155.83;104068;276;38239;-77
2023/06/04 10:46:28;;;;;;;1.70;0.70;;;;;;;25.46;18.85;101155.61;104050;277;39532;-76
2023/06/04 10:49:02;;;;;;;2.60;0.80;;;;;;;25.41;18.78;101152.64;104025;277;38310;-77
2023/06/04 10:51:38;;;;;;;1.70;0.90;;;;;;;25.34;19.53;101149.00;104011;276;38270;-77
2023/06/04 10:54:12;;;;;;;1.20;0.70;;;;;;;25.38;19.68;101149.73;104037;276;39266;-77
2023/06/04 10:56:47;;;;;;;1.00;0.70;;;;;;;25.39;20.24;101147.84;104021;277;38901;-77
2023/06/04 10:59:22;;;;;;;1.10;0.70;;;;;;;25.30;19.41;101142.61;104056;277;37997;-77
2023/06/04 11:02:07;;;;;;;4.40;0.80;;;;;;;25.12;20.16;101143.95;103875;277;38746;-76
2023/06/04 11:04:44;;;;;;;1.40;1.00;;;;;;;24.98;19.70;101139.80;104051;277;38436;-77
2023/06/04 11:07:18;;;;;;;1.10;0.80;;;;;;;24.90;19.85;101140.65;104064;265;38735;-77
2023/06/04 11:09:56;;;;;;;1.40;0.90;;;;;;;24.86;19.92;101144.98;103938;277;38455;-78
2023/06/04 11:12:32;;;;;;;1.50;0.80;;;;;;;24.74;19.81;101141.02;103909;277;38965;-76
2023/06/04 11:15:08;;;;;;;1.10;0.90;;;;;;;24.64;20.51;101142.04;104090;276;38287;-76
2023/06/04 11:17:59;;;;;;;1.10;0.70;;;;;;;24.61;21.46;101138.36;104130;277;38225;-78
2023/06/04 11:20:44;;;;;;;0.80;0.70;;;;;;;24.61;20.84;101134.81;103515;277;586731;-76
2023/06/04 11:23:26;;;;;;;1.30;0.80;;;;;;;24.61;20.90;101134.02;104123;265;38392;-76
2023/06/04 11:26:05;;;;;;;1.20;0.80;;;;;;;24.66;20.71;101139.18;104115;277;38228;-77
2023/06/04 11:28:45;;;;;;;1.60;0.70;;;;;;;24.65;20.89;101139.30;104141;277;38246;-76
2023/06/04 11:31:22;;;;;;;1.30;0.70;;;;;;;24.63;20.50;101140.97;103774;279;39512;-76
2023/06/04 11:33:59;;;;;;;1.80;1.00;;;;;;;24.42;20.14;101132.08;104007;277;38215;-76
2023/06/04 11:36:35;;;;;;;1.40;0.60;;;;;;;24.33;20.88;101135.70;103869;279;38307;-77
2023/06/04 11:39:15;;;;;;;1.60;1.10;;;;;;;24.34;20.92;101136.35;104076;265;38264;-77
2023/06/04 11:41:56;;;;;;;3.50;0.90;;;;;;;24.33;20.97;101133.02;103871;277;38805;-77
2023/06/04 11:44:34;;;;;;;0.80;0.80;;;;;;;24.34;21.35;101125.30;103764;277;40267;-77
2023/06/04 11:47:16;;;;;;;1.20;0.80;;;;;;;24.36;21.02;101131.69;103822;278;38308;-78
2023/06/04 11:49:58;;;;;;;1.60;0.70;;;;;;;24.29;20.85;101134.05;104124;277;38352;-75
2023/06/04 11:52:37;;;;;;;1.00;0.70;;;;;;;24.24;20.77;101131.83;103897;277;39716;-75
2023/06/04 11:55:20;;;;;;;1.70;0.80;;;;;;;24.13;20.54;101129.33;104125;277;38255;-76
2023/06/04 11:58:00;;;;;;;3.40;0.70;;;;;;;24.00;20.92;101132.59;104159;277;39858;-76
2023/06/04 12:00:47;;;;;;;3.20;0.80;;;;;;;23.93;21.21;101132.92;104128;277;38247;-77
2023/06/04 12:03:42;;;;;;;2.10;0.80;;;;;;;23.96;22.04;101126.48;104035;277;38579;-75
2023/06/04 12:06:22;;;;;;;2.20;1.00;;;;;;;24.07;22.05;101122.92;104154;277;38448;-76
2023/06/04 12:09:04;;;;;;;1.40;0.90;;;;;;;24.13;21.91;101122.88;103962;266;38253;-76
2023/06/04 12:11:43;;;;;;;1.10;0.90;;;;;;;24.15;21.62;101122.71;104106;276;38537;-76
2023/06/04 12:14:26;;;;;;;2.20;0.90;;;;;;;24.14;21.43;101119.27;103864;268;38258;-77
2023/06/04 12:17:08;;;;;;;1.20;0.80;;;;;;;24.07;21.42;101122.55;104187;276;38531;-76
2023/06/04 12:20:09;;;;;;;1.80;0.80;;;;;;;24.03;21.69;101119.88;104214;277;38243;-77